createdAt,value
2022-12-05T05:34:52.230Z,0
2022-12-05T05:35:36.238Z,0
2022-12-05T05:36:36.000Z,0
2022-12-05T05:37:35.985Z,0
2022-12-05T05:38:36.015Z,0
2022-12-05T05:39:38.986Z,0
2022-12-05T05:40:35.999Z,0
2022-12-05T05:41:35.983Z,0
2022-12-05T05:42:35.970Z,0
2022-12-05T05:43:36.171Z,0
2022-12-05T05:44:35.982Z,0
2022-12-05T05:45:36.029Z,0
2022-12-05T05:46:36.375Z,0
2022-12-05T05:47:35.997Z,0
2022-12-05T05:48:35.992Z,0
2022-12-05T05:49:35.994Z,0
2022-12-05T05:50:36.070Z,0
2022-12-05T05:51:36.094Z,0
2022-12-05T05:52:36.042Z,0
2022-12-05T05:53:37.018Z,0
2022-12-05T05:54:36.006Z,0
2022-12-05T05:55:36.045Z,0
2022-12-05T05:56:36.014Z,0
2022-12-05T05:57:36.010Z,0
2022-12-05T05:58:36.007Z,0
2022-12-05T05:59:36.003Z,0
2022-12-05T06:00:36.040Z,0
2022-12-05T06:01:36.048Z,0
2022-12-05T06:02:36.427Z,0
2022-12-05T06:03:36.898Z,0
2022-12-05T06:04:36.099Z,0
2022-12-05T06:05:36.061Z,0
2022-12-05T06:06:38.929Z,0
2022-12-05T06:07:36.516Z,0
2022-12-05T06:08:36.151Z,0
2022-12-05T06:09:36.042Z,0
2022-12-05T06:10:36.050Z,0
2022-12-05T06:11:36.025Z,0
2022-12-05T06:12:36.050Z,0
2022-12-05T06:13:36.022Z,0
2022-12-05T06:14:36.065Z,0
2022-12-05T06:15:36.064Z,0
2022-12-05T06:16:36.512Z,0
2022-12-05T06:17:39.004Z,0
2022-12-05T06:18:37.066Z,0
2022-12-05T06:19:36.086Z,0
2022-12-05T06:20:36.060Z,0
2022-12-05T06:21:36.041Z,0
2022-12-05T06:22:38.986Z,0
2022-12-05T06:23:36.068Z,0
2022-12-05T06:24:36.079Z,0
2022-12-05T06:25:36.073Z,0
2022-12-05T06:26:36.181Z,0
2022-12-05T06:27:36.051Z,0
2022-12-05T06:28:36.028Z,0
2022-12-05T06:29:40.769Z,0
2022-12-05T06:30:36.068Z,0
2022-12-05T06:31:36.492Z,0
2022-12-05T06:32:36.076Z,0
2022-12-05T06:33:39.049Z,0
2022-12-05T06:34:36.048Z,0
2022-12-05T06:35:36.067Z,0
2022-12-05T06:36:36.066Z,0
2022-12-05T06:37:35.898Z,0
2022-12-05T06:38:42.190Z,0
2022-12-05T06:39:36.102Z,0
2022-12-05T06:40:36.077Z,0
2022-12-05T06:41:36.061Z,0
2022-12-05T06:42:36.065Z,0
2022-12-05T06:43:36.075Z,0
2022-12-05T06:44:39.218Z,0
2022-12-05T06:45:36.638Z,0
2022-12-05T06:46:36.236Z,0
2022-12-05T06:47:36.059Z,0
2022-12-05T06:48:36.082Z,4
2022-12-05T06:49:42.786Z,4
2022-12-05T06:50:36.135Z,4
2022-12-05T06:51:36.109Z,0
2022-12-05T06:52:36.082Z,0
2022-12-05T06:53:36.117Z,0
2022-12-05T06:54:36.228Z,4
2022-12-05T06:55:38.993Z,4
2022-12-05T06:56:36.139Z,4
2022-12-05T06:57:36.105Z,4
2022-12-05T06:58:36.100Z,0
2022-12-05T06:59:36.142Z,0
2022-12-05T07:00:36.662Z,4
2022-12-05T07:01:36.493Z,4
2022-12-05T07:02:36.565Z,4
2022-12-05T07:03:36.103Z,4
2022-12-05T07:04:36.211Z,4
2022-12-05T07:05:36.201Z,4
2022-12-05T07:06:39.141Z,0
2022-12-05T07:07:36.386Z,0
2022-12-05T07:08:39.137Z,4
2022-12-05T07:09:36.100Z,4
2022-12-05T07:10:36.364Z,0
2022-12-05T07:11:39.063Z,4
2022-12-05T07:12:36.117Z,4
2022-12-05T07:13:36.155Z,4
2022-12-05T07:14:55.087Z,4
2022-12-05T07:15:36.145Z,4
2022-12-05T07:16:36.459Z,8
2022-12-05T07:17:39.126Z,8
2022-12-05T07:18:36.148Z,8
2022-12-05T07:19:36.130Z,8
2022-12-05T07:21:20.829Z,8
2022-12-05T07:21:36.238Z,12
2022-12-05T07:22:39.174Z,12
2022-12-05T07:23:36.158Z,12
2022-12-05T07:24:36.135Z,12
2022-12-05T07:25:36.134Z,12
2022-12-05T07:26:36.240Z,16
2022-12-05T07:27:36.153Z,12
2022-12-05T07:28:38.997Z,12
2022-12-05T07:29:36.167Z,16
2022-12-05T07:30:36.148Z,16
2022-12-05T07:31:36.613Z,16
2022-12-05T07:32:36.144Z,16
2022-12-05T07:33:38.992Z,12
2022-12-05T07:34:36.155Z,16
2022-12-05T07:35:36.178Z,16
2022-12-05T07:36:36.183Z,16
2022-12-05T07:37:36.157Z,16
2022-12-05T07:38:36.207Z,16
2022-12-05T07:39:39.046Z,20
2022-12-05T07:40:36.274Z,16
2022-12-05T07:41:36.184Z,20
2022-12-05T07:42:36.283Z,20
2022-12-05T07:43:36.199Z,16
2022-12-05T07:44:38.983Z,20
2022-12-05T07:45:37.374Z,20
2022-12-05T07:46:36.367Z,20
2022-12-05T07:47:36.598Z,24
2022-12-05T07:48:36.179Z,20
2022-12-05T07:49:36.388Z,20
2022-12-05T07:50:38.945Z,20
2022-12-05T07:51:36.198Z,20
2022-12-05T07:52:36.152Z,24
2022-12-05T07:53:36.163Z,24
2022-12-05T07:54:36.159Z,28
2022-12-05T07:55:39.192Z,32
2022-12-05T07:56:36.202Z,32
2022-12-05T07:57:36.189Z,36
2022-12-05T07:58:36.267Z,36
2022-12-05T07:59:36.194Z,36
2022-12-05T08:00:36.417Z,40
2022-12-05T08:01:39.506Z,48
2022-12-05T08:02:41.403Z,48
2022-12-05T08:03:36.223Z,48
2022-12-05T08:04:36.251Z,48
2022-12-05T08:05:36.217Z,44
2022-12-05T08:06:38.947Z,44
2022-12-05T08:07:36.477Z,44
2022-12-05T08:08:36.225Z,48
2022-12-05T08:09:36.249Z,52
2022-12-05T08:10:36.179Z,52
2022-12-05T08:11:36.304Z,52
2022-12-05T08:12:36.196Z,56
2022-12-05T08:13:36.211Z,60
2022-12-05T08:14:36.276Z,60
2022-12-05T08:15:36.243Z,60
2022-12-05T08:16:36.579Z,60
2022-12-05T08:17:36.200Z,60
2022-12-05T08:18:36.208Z,60
2022-12-05T08:19:36.217Z,60
2022-12-05T08:20:36.328Z,56
2022-12-05T08:21:36.234Z,56
2022-12-05T08:22:36.230Z,52
2022-12-05T08:23:38.944Z,52
2022-12-05T08:24:36.235Z,56
2022-12-05T08:25:36.215Z,52
2022-12-05T08:26:36.269Z,56
2022-12-05T08:27:36.234Z,56
2022-12-05T08:28:36.217Z,60
2022-12-05T08:29:36.194Z,64
2022-12-05T08:30:36.580Z,60
2022-12-05T08:31:36.412Z,64
2022-12-05T08:32:36.231Z,68
2022-12-05T08:33:40.076Z,68
2022-12-05T08:34:36.237Z,68
2022-12-05T08:35:36.237Z,72
2022-12-05T08:36:36.258Z,76
2022-12-05T08:37:36.266Z,80
2022-12-05T08:38:39.204Z,88
2022-12-05T08:39:46.730Z,88
2022-12-05T08:40:36.268Z,84
2022-12-05T08:41:36.302Z,76
2022-12-05T08:42:36.392Z,64
2022-12-05T08:43:36.259Z,60
2022-12-05T08:44:39.085Z,48
2022-12-05T08:45:39.270Z,40
2022-12-05T08:46:36.649Z,36
2022-12-05T08:47:39.163Z,28
2022-12-05T08:48:36.773Z,28
2022-12-05T08:49:39.091Z,32
2022-12-05T08:50:36.267Z,28
2022-12-05T08:51:36.376Z,28
2022-12-05T08:52:36.268Z,32
2022-12-05T08:53:39.643Z,36
2022-12-05T08:54:36.306Z,36
2022-12-05T08:55:36.281Z,44
2022-12-05T08:56:36.324Z,44
2022-12-05T08:57:36.283Z,44
2022-12-05T08:58:36.265Z,48
2022-12-05T08:59:36.286Z,52
2022-12-05T09:00:39.382Z,60
2022-12-05T09:01:37.217Z,68
2022-12-05T09:02:36.698Z,80
2022-12-05T09:03:36.311Z,92
2022-12-05T09:04:36.302Z,100
2022-12-05T09:05:37.465Z,96
2022-12-05T09:06:36.304Z,92
2022-12-05T09:07:36.588Z,88
2022-12-05T09:08:36.326Z,84
2022-12-05T09:09:36.122Z,80
2022-12-05T09:10:36.313Z,76
2022-12-05T09:11:39.335Z,72
2022-12-05T09:12:36.337Z,68
2022-12-05T09:13:36.292Z,60
2022-12-05T09:14:36.304Z,52
2022-12-05T09:15:36.592Z,44
2022-12-05T09:16:44.195Z,40
2022-12-05T09:17:36.285Z,32
2022-12-05T09:18:39.404Z,32
2022-12-05T09:19:36.323Z,28
2022-12-05T09:20:36.302Z,28
2022-12-05T09:21:36.329Z,36
2022-12-05T09:22:39.328Z,40
2022-12-05T09:23:36.286Z,40
2022-12-05T09:24:36.314Z,44
2022-12-05T09:25:36.302Z,48
2022-12-05T09:26:36.336Z,48
2022-12-05T09:27:39.315Z,48
2022-12-05T09:28:36.293Z,56
2022-12-05T09:29:36.388Z,56
2022-12-05T09:30:36.316Z,56
2022-12-05T09:31:36.715Z,52
2022-12-05T09:32:36.421Z,56
2022-12-05T09:33:39.400Z,52
2022-12-05T09:34:36.397Z,52
2022-12-05T09:35:37.368Z,48
2022-12-05T09:36:36.334Z,48
2022-12-05T09:37:51.569Z,48
2022-12-05T09:38:39.474Z,52
2022-12-05T09:39:36.398Z,52
2022-12-05T09:40:36.328Z,56
2022-12-05T09:41:36.364Z,56
2022-12-05T09:42:36.456Z,60
2022-12-05T09:43:36.346Z,64
2022-12-05T09:44:39.384Z,68
2022-12-05T09:45:36.367Z,72
2022-12-05T09:46:42.530Z,80
2022-12-05T09:47:36.365Z,92
2022-12-05T09:48:36.403Z,104
2022-12-05T09:49:39.275Z,116
2022-12-05T09:50:36.421Z,120
2022-12-05T09:51:36.421Z,116
2022-12-05T09:52:36.369Z,108
2022-12-05T09:53:36.369Z,100
2022-12-05T09:54:36.349Z,92
2022-12-05T09:55:39.361Z,80
2022-12-05T09:56:36.372Z,76
2022-12-05T09:57:40.539Z,68
2022-12-05T09:58:36.353Z,68
2022-12-05T09:59:36.356Z,68
2022-12-05T10:00:39.432Z,68
2022-12-05T10:01:36.779Z,64
2022-12-05T10:02:36.405Z,64
2022-12-05T10:03:36.378Z,68
2022-12-05T10:04:36.853Z,68
2022-12-05T10:05:36.621Z,68
2022-12-05T10:06:39.558Z,68
2022-12-05T10:07:36.736Z,72
2022-12-05T10:08:37.393Z,68
2022-12-05T10:09:36.386Z,76
2022-12-05T10:10:36.406Z,76
2022-12-05T10:11:39.179Z,84
2022-12-05T10:12:36.392Z,84
2022-12-05T10:13:36.402Z,80
2022-12-05T10:14:36.391Z,80
2022-12-05T10:15:36.673Z,72
2022-12-05T10:16:36.781Z,68
2022-12-05T10:17:39.448Z,72
2022-12-05T10:18:36.383Z,68
2022-12-05T10:19:36.367Z,64
2022-12-05T10:20:36.419Z,64
2022-12-05T10:21:36.460Z,68
2022-12-05T10:22:39.613Z,68
2022-12-05T10:24:03.833Z,68
2022-12-05T10:24:36.391Z,64
2022-12-05T10:25:36.405Z,64
2022-12-05T10:26:36.446Z,64
2022-12-05T10:27:43.083Z,64
2022-12-05T10:28:39.465Z,68
2022-12-05T10:29:36.407Z,68
2022-12-05T10:30:36.398Z,68
2022-12-05T10:31:36.960Z,72
2022-12-05T10:32:36.400Z,72
2022-12-05T10:33:39.486Z,72
2022-12-05T10:34:36.447Z,72
2022-12-05T10:35:36.417Z,72
2022-12-05T10:36:36.471Z,76
2022-12-05T10:37:36.452Z,80
2022-12-05T10:38:36.470Z,80
2022-12-05T10:39:36.450Z,80
2022-12-05T10:40:36.451Z,84
2022-12-05T10:41:36.443Z,80
2022-12-05T10:42:36.419Z,76
2022-12-05T10:43:36.456Z,76
2022-12-05T10:44:36.414Z,72
2022-12-05T10:45:36.474Z,72
2022-12-05T10:46:36.818Z,68
2022-12-05T10:47:36.434Z,68
2022-12-05T10:48:36.496Z,68
2022-12-05T10:49:36.484Z,68
2022-12-05T10:50:36.457Z,68
2022-12-05T10:51:43.943Z,68
2022-12-05T10:52:36.485Z,68
2022-12-05T10:53:36.485Z,68
2022-12-05T10:54:36.598Z,72
2022-12-05T10:55:36.447Z,80
2022-12-05T10:56:37.886Z,80
2022-12-05T10:57:39.445Z,88
2022-12-05T10:58:36.505Z,92
2022-12-05T10:59:37.164Z,96
2022-12-05T11:00:40.765Z,92
2022-12-05T11:01:38.264Z,92
2022-12-05T11:02:36.455Z,96
2022-12-05T11:03:36.470Z,100
2022-12-05T11:04:36.512Z,108
2022-12-05T11:05:36.925Z,116
2022-12-05T11:06:36.482Z,124
2022-12-05T11:07:36.939Z,120
2022-12-05T11:09:12.526Z,116
2022-12-05T11:09:36.462Z,112
2022-12-05T11:10:36.470Z,104
2022-12-05T11:11:36.549Z,100
2022-12-05T11:12:36.493Z,96
2022-12-05T11:13:36.490Z,96
2022-12-05T11:14:36.515Z,96
2022-12-05T11:15:36.449Z,96
2022-12-05T11:16:40.075Z,100
2022-12-05T11:17:36.465Z,100
2022-12-05T11:18:36.454Z,104
2022-12-05T11:19:36.472Z,104
2022-12-05T11:20:36.564Z,104
2022-12-05T11:21:36.506Z,104
2022-12-05T11:22:36.480Z,108
2022-12-05T11:23:36.518Z,116
2022-12-05T11:24:36.490Z,120
2022-12-05T11:25:36.481Z,128
2022-12-05T11:26:36.554Z,132
2022-12-05T11:27:39.278Z,136
2022-12-05T11:28:36.501Z,132
2022-12-05T11:29:36.473Z,124
2022-12-05T11:30:36.672Z,120
2022-12-05T11:31:36.787Z,120
2022-12-05T11:32:36.475Z,120
2022-12-05T11:33:36.503Z,116
2022-12-05T11:34:36.465Z,108
2022-12-05T11:35:36.484Z,100
2022-12-05T11:36:36.519Z,88
2022-12-05T11:37:36.558Z,80
2022-12-05T11:38:39.626Z,80
2022-12-05T11:39:36.490Z,76
2022-12-05T11:40:43.505Z,72
2022-12-05T11:41:36.497Z,68
2022-12-05T11:42:36.742Z,64
2022-12-05T11:43:36.527Z,64
2022-12-05T11:44:36.485Z,60
2022-12-05T11:45:36.476Z,64
2022-12-05T11:46:36.759Z,68
2022-12-05T11:47:36.542Z,72
2022-12-05T11:48:36.510Z,76
2022-12-05T11:49:39.598Z,76
2022-12-05T11:50:36.547Z,80
2022-12-05T11:51:37.543Z,84
2022-12-05T11:52:43.515Z,88
2022-12-05T11:53:36.528Z,88
2022-12-05T11:55:11.305Z,92
2022-12-05T11:55:36.506Z,96
2022-12-05T11:56:36.673Z,96
2022-12-05T11:57:36.549Z,100
2022-12-05T11:58:36.536Z,96
2022-12-05T11:59:39.526Z,100
2022-12-05T12:00:39.348Z,100
2022-12-05T12:01:36.711Z,100
2022-12-05T12:02:37.001Z,100
2022-12-05T12:03:40.403Z,104
2022-12-05T12:04:36.523Z,112
2022-12-05T12:05:39.292Z,124
2022-12-05T12:06:36.563Z,120
2022-12-05T12:07:36.730Z,120
2022-12-05T12:08:36.531Z,120
2022-12-05T12:09:36.520Z,124
2022-12-05T12:10:36.712Z,120
2022-12-05T12:11:39.569Z,120
2022-12-05T12:12:36.656Z,128
2022-12-05T12:13:36.691Z,128
2022-12-05T12:14:36.539Z,132
2022-12-05T12:15:36.597Z,144
2022-12-05T12:16:40.260Z,156
2022-12-05T12:17:36.540Z,168
2022-12-05T12:18:36.543Z,172
2022-12-05T12:19:36.549Z,176
2022-12-05T12:20:36.554Z,176
2022-12-05T12:21:43.608Z,180
2022-12-05T12:22:39.449Z,180
2022-12-05T12:23:36.565Z,188
2022-12-05T12:24:36.574Z,196
2022-12-05T12:25:36.589Z,200
2022-12-05T12:26:36.561Z,204
2022-12-05T12:27:39.734Z,200
2022-12-05T12:28:36.572Z,196
2022-12-05T12:29:36.912Z,188
2022-12-05T12:30:36.626Z,180
2022-12-05T12:31:36.827Z,168
2022-12-05T12:32:36.592Z,156
2022-12-05T12:33:39.576Z,144
2022-12-05T12:34:36.611Z,132
2022-12-05T12:35:36.545Z,124
2022-12-05T12:36:36.554Z,112
2022-12-05T12:37:36.581Z,100
2022-12-05T12:38:36.770Z,92
2022-12-05T12:39:36.545Z,88
2022-12-05T12:40:36.669Z,88
2022-12-05T12:41:36.622Z,80
2022-12-05T12:42:36.740Z,80
2022-12-05T12:44:00.263Z,68
2022-12-05T12:44:39.351Z,64
2022-12-05T12:45:36.673Z,56
2022-12-05T12:46:37.030Z,56
2022-12-05T12:47:36.612Z,56
2022-12-05T12:48:36.580Z,52
2022-12-05T12:49:39.599Z,48
2022-12-05T12:50:43.895Z,48
2022-12-05T12:51:36.585Z,48
2022-12-05T12:52:36.614Z,44
2022-12-05T12:53:36.602Z,48
2022-12-05T12:55:10.010Z,44
2022-12-05T12:55:39.395Z,44
2022-12-05T12:56:36.613Z,44
2022-12-05T12:57:36.614Z,40
2022-12-05T12:58:36.575Z,44
2022-12-05T12:59:36.637Z,44
2022-12-05T13:00:39.797Z,48
2022-12-05T13:01:37.031Z,48
2022-12-05T13:02:36.987Z,48
2022-12-05T13:03:36.647Z,52
2022-12-05T13:04:36.606Z,48
2022-12-05T13:05:36.651Z,52
2022-12-05T13:06:36.589Z,52
2022-12-05T13:07:36.848Z,56
2022-12-05T13:08:36.582Z,56
2022-12-05T13:09:36.595Z,64
2022-12-05T13:10:36.586Z,64
2022-12-05T13:11:36.598Z,60
2022-12-05T13:12:36.618Z,60
2022-12-05T13:13:39.617Z,60
2022-12-05T13:14:36.592Z,56
2022-12-05T13:15:36.737Z,52
2022-12-05T13:16:39.973Z,52
2022-12-05T13:17:36.615Z,48
2022-12-05T13:18:36.622Z,48
2022-12-05T13:19:36.654Z,48
2022-12-05T13:20:36.687Z,48
2022-12-05T13:21:36.593Z,44
2022-12-05T13:22:36.636Z,48
2022-12-05T13:23:36.611Z,44
2022-12-05T13:24:36.611Z,44
2022-12-05T13:25:36.724Z,44
2022-12-05T13:26:36.584Z,44
2022-12-05T13:27:39.670Z,44
2022-12-05T13:28:36.617Z,36
2022-12-05T13:29:39.629Z,36
2022-12-05T13:30:36.633Z,36
2022-12-05T13:31:37.014Z,36
2022-12-05T13:32:36.654Z,36
2022-12-05T13:33:36.604Z,40
2022-12-05T13:34:36.639Z,36
2022-12-05T13:35:36.663Z,36
2022-12-05T13:36:36.631Z,36
2022-12-05T13:37:36.674Z,36
2022-12-05T13:38:39.755Z,36
2022-12-05T13:39:36.619Z,36
2022-12-05T13:40:36.627Z,32
2022-12-05T13:41:36.636Z,32
2022-12-05T13:42:36.679Z,32
2022-12-05T13:43:39.753Z,32
2022-12-05T13:44:39.584Z,32
2022-12-05T13:45:36.892Z,36
2022-12-05T13:46:36.899Z,40
2022-12-05T13:47:36.675Z,40
2022-12-05T13:48:36.641Z,40
2022-12-05T13:49:36.681Z,44
2022-12-05T13:50:36.690Z,40
2022-12-05T13:51:36.793Z,40
2022-12-05T13:52:36.642Z,40
2022-12-05T13:53:36.672Z,36
2022-12-05T13:54:39.781Z,36
2022-12-05T13:55:42.520Z,36
2022-12-05T13:56:36.631Z,40
2022-12-05T13:57:36.699Z,36
2022-12-05T13:58:39.368Z,36
2022-12-05T13:59:36.653Z,36
2022-12-05T14:01:45.668Z,28
2022-12-05T14:02:37.027Z,24
2022-12-05T14:03:36.688Z,24
2022-12-05T14:04:36.780Z,24
2022-12-05T14:05:39.678Z,20
2022-12-05T14:06:36.640Z,20
2022-12-05T14:07:36.831Z,16
2022-12-05T14:08:36.851Z,20
2022-12-05T14:09:36.674Z,20
2022-12-05T14:10:36.633Z,16
2022-12-05T14:11:36.680Z,16
2022-12-05T14:12:39.675Z,16
2022-12-05T14:13:36.962Z,20
2022-12-05T14:14:36.657Z,16
2022-12-05T14:15:36.754Z,20
2022-12-05T14:16:39.833Z,20
2022-12-05T14:17:36.720Z,20
2022-12-05T14:18:36.669Z,20
2022-12-05T14:19:41.577Z,20
2022-12-05T14:20:36.660Z,20
2022-12-05T14:21:39.730Z,16
2022-12-05T14:22:36.771Z,16
2022-12-05T14:23:36.715Z,16
2022-12-05T14:24:36.687Z,16
2022-12-05T14:25:36.677Z,12
2022-12-05T14:26:36.690Z,12
2022-12-05T14:27:39.957Z,16
2022-12-05T14:28:36.719Z,16
2022-12-05T14:29:36.935Z,12
2022-12-05T14:30:37.075Z,12
2022-12-05T14:31:36.800Z,12
2022-12-05T14:32:37.995Z,12
2022-12-05T14:33:36.780Z,12
2022-12-05T14:34:36.712Z,12
2022-12-05T14:35:36.708Z,8
2022-12-05T14:36:36.715Z,12
2022-12-05T14:37:36.845Z,8
2022-12-05T14:38:39.552Z,12
2022-12-05T14:39:36.709Z,8
2022-12-05T14:40:36.752Z,8
2022-12-05T14:41:36.703Z,8
2022-12-05T14:42:36.741Z,8
2022-12-05T14:43:39.767Z,4
2022-12-05T14:44:36.721Z,8
2022-12-05T14:45:39.961Z,4
2022-12-05T14:46:37.186Z,8
2022-12-05T14:47:36.744Z,4
2022-12-05T14:48:36.734Z,4
2022-12-05T14:49:48.651Z,8
2022-12-05T14:50:36.852Z,4
2022-12-05T14:51:38.947Z,4
2022-12-05T14:52:36.754Z,4
2022-12-05T14:53:39.528Z,4
2022-12-05T14:54:42.822Z,4
2022-12-05T14:55:36.719Z,4
2022-12-05T14:56:36.739Z,8
2022-12-05T14:57:37.784Z,8
2022-12-05T14:58:36.761Z,8
2022-12-05T14:59:36.710Z,4
2022-12-05T15:00:42.628Z,4
2022-12-05T15:01:36.947Z,4
2022-12-05T15:02:36.758Z,4
2022-12-05T15:03:36.717Z,4
2022-12-05T15:04:37.051Z,4
2022-12-05T15:05:36.971Z,4
2022-12-05T15:06:36.782Z,0
2022-12-05T15:07:40.170Z,4
2022-12-05T15:08:36.734Z,4
2022-12-05T15:09:45.260Z,4
2022-12-05T15:10:36.748Z,4
2022-12-05T15:11:39.616Z,0
2022-12-05T15:12:36.761Z,0
2022-12-05T15:13:36.769Z,0
2022-12-05T15:14:38.585Z,0
2022-12-05T15:15:37.119Z,0
2022-12-05T15:16:39.869Z,0
2022-12-05T15:17:36.779Z,0
2022-12-05T15:18:36.763Z,0
2022-12-05T15:19:36.731Z,0
2022-12-05T15:20:43.387Z,0
2022-12-05T15:21:36.765Z,0
2022-12-05T15:22:39.959Z,0
2022-12-05T15:23:36.763Z,4
2022-12-05T15:24:36.726Z,4
2022-12-05T15:25:36.788Z,0
2022-12-05T15:26:54.203Z,0
2022-12-05T15:27:39.815Z,0
2022-12-05T15:28:36.745Z,0
2022-12-05T15:29:36.729Z,0
2022-12-05T15:30:39.872Z,0
2022-12-05T15:31:37.090Z,0
2022-12-05T15:32:36.755Z,0
2022-12-05T15:33:36.777Z,0
2022-12-05T15:34:36.802Z,0
2022-12-05T15:35:36.807Z,0
2022-12-05T15:36:36.810Z,0
2022-12-05T15:37:36.801Z,0
2022-12-05T15:38:36.788Z,0
2022-12-05T15:39:36.795Z,0
2022-12-05T15:40:36.774Z,0
2022-12-05T15:41:36.797Z,0
2022-12-05T15:42:37.381Z,0
2022-12-05T15:43:37.851Z,0
2022-12-05T15:44:43.166Z,0
2022-12-05T15:45:36.782Z,0
2022-12-05T15:46:37.183Z,0
2022-12-05T15:47:36.785Z,0
2022-12-05T15:48:37.849Z,0
2022-12-05T15:49:36.810Z,0
2022-12-05T15:50:36.786Z,0
2022-12-05T15:51:36.817Z,0
2022-12-05T15:52:36.830Z,0
2022-12-05T15:53:36.792Z,0
2022-12-05T15:54:39.631Z,0
2022-12-05T15:55:36.850Z,0
2022-12-05T15:56:36.814Z,0
2022-12-05T15:57:36.890Z,0
2022-12-05T15:58:36.861Z,0
2022-12-05T15:59:36.810Z,0
2022-12-05T16:00:36.808Z,0
2022-12-05T16:01:37.293Z,0
2022-12-05T16:02:37.168Z,0
2022-12-05T16:03:36.860Z,0
2022-12-05T16:04:36.940Z,0
2022-12-05T16:05:36.843Z,0
2022-12-05T16:06:36.825Z,0
2022-12-05T16:07:37.000Z,0
2022-12-05T16:08:36.863Z,0
2022-12-05T16:09:36.874Z,0
2022-12-05T16:10:39.939Z,0
2022-12-05T16:11:36.826Z,0
2022-12-05T16:12:36.921Z,0
2022-12-05T16:13:36.856Z,0
2022-12-05T16:15:06.229Z,0
2022-12-05T16:15:36.953Z,0
2022-12-05T16:16:39.968Z,0
2022-12-05T16:17:36.811Z,0
2022-12-05T16:18:36.860Z,0
2022-12-05T16:19:36.825Z,0
2022-12-05T16:20:36.850Z,0
2022-12-05T16:21:43.966Z,0
2022-12-05T16:22:36.828Z,0
2022-12-05T16:23:36.930Z,0
2022-12-05T16:24:36.867Z,0
2022-12-05T16:25:36.832Z,0
2022-12-05T16:26:36.831Z,0
2022-12-05T16:27:36.848Z,0
2022-12-05T16:28:36.831Z,0
2022-12-05T16:29:36.884Z,0
2022-12-05T16:30:36.897Z,0
2022-12-05T16:31:37.319Z,0
2022-12-05T16:32:39.963Z,0
2022-12-05T16:33:43.584Z,0
2022-12-05T16:34:36.847Z,0
2022-12-05T16:35:36.855Z,0
2022-12-05T16:36:36.917Z,0
2022-12-05T16:37:36.869Z,0
2022-12-05T16:38:37.073Z,0
2022-12-05T16:39:36.845Z,0
2022-12-05T16:40:37.013Z,0
2022-12-05T16:41:36.856Z,0
2022-12-05T16:42:36.941Z,0
2022-12-05T16:43:39.960Z,0
2022-12-05T16:44:37.118Z,0
2022-12-05T16:45:36.938Z,0
2022-12-05T16:46:38.221Z,0
2022-12-05T16:47:37.132Z,0
2022-12-05T16:48:40.542Z,0
2022-12-05T16:49:42.784Z,0
2022-12-05T16:50:36.954Z,0
2022-12-05T16:51:36.852Z,0
2022-12-05T16:52:36.899Z,0
2022-12-05T16:53:36.859Z,0
2022-12-05T16:54:39.890Z,0
2022-12-05T16:55:42.495Z,0
2022-12-05T16:56:36.900Z,0
2022-12-05T16:57:36.895Z,0
2022-12-05T16:58:37.022Z,0
2022-12-05T16:59:39.889Z,0
2022-12-05T17:00:37.124Z,0
2022-12-05T17:01:44.146Z,0
2022-12-05T17:02:37.271Z,0
2022-12-05T17:03:42.232Z,0
2022-12-05T17:04:37.300Z,0
2022-12-05T17:05:39.498Z,0
2022-12-05T17:06:36.926Z,0
2022-12-05T17:07:41.066Z,0
2022-12-05T17:08:36.895Z,0
2022-12-05T17:09:36.881Z,0
2022-12-05T17:10:39.896Z,0
2022-12-05T17:11:36.905Z,0
2022-12-05T17:12:36.873Z,0
2022-12-05T17:13:36.940Z,0
2022-12-05T17:14:36.949Z,0
2022-12-05T17:15:36.876Z,0
2022-12-05T17:16:40.411Z,0
2022-12-05T17:17:37.006Z,0
2022-12-05T17:18:39.061Z,0
2022-12-05T17:19:36.911Z,0
2022-12-05T17:20:36.893Z,0
2022-12-05T17:21:39.733Z,0
2022-12-05T17:22:36.909Z,0
2022-12-05T17:23:36.958Z,0
2022-12-05T17:24:36.920Z,0
2022-12-05T17:25:36.949Z,0
2022-12-05T17:26:36.943Z,0
2022-12-05T17:27:39.671Z,0
2022-12-05T17:28:37.052Z,0
2022-12-05T17:29:42.352Z,0
2022-12-05T17:30:36.891Z,0
2022-12-05T17:31:37.254Z,0
2022-12-05T17:32:39.785Z,0
2022-12-05T17:33:36.896Z,0
2022-12-05T17:34:36.952Z,0
2022-12-05T17:35:36.937Z,0
2022-12-05T17:36:36.966Z,0
2022-12-05T17:37:36.903Z,0
2022-12-05T17:38:39.738Z,0
2022-12-05T17:39:36.951Z,0
2022-12-05T17:40:36.959Z,0
2022-12-05T17:41:37.006Z,0
2022-12-05T17:42:37.251Z,0
2022-12-05T17:43:39.704Z,0
2022-12-05T17:44:36.929Z,0
2022-12-05T17:45:37.005Z,0
2022-12-05T17:46:37.421Z,0
2022-12-05T17:47:36.939Z,0
2022-12-05T17:48:36.993Z,0
2022-12-05T17:49:40.063Z,0
2022-12-05T17:50:36.960Z,0
2022-12-05T17:52:36.939Z,0
2022-12-05T17:53:36.960Z,0
2022-12-05T17:54:40.060Z,0
2022-12-05T17:55:36.988Z,0
2022-12-05T17:56:36.961Z,0
2022-12-05T17:57:36.906Z,0
2022-12-05T17:58:36.943Z,0
2022-12-05T17:59:37.017Z,0
2022-12-05T18:00:37.272Z,0
2022-12-05T18:01:37.200Z,0
2022-12-05T18:02:36.913Z,0
2022-12-05T18:03:37.485Z,0
2022-12-05T18:04:36.988Z,0
2022-12-05T18:05:37.005Z,0
2022-12-05T18:06:37.074Z,0
2022-12-05T18:07:37.389Z,0
2022-12-05T18:08:36.937Z,0
2022-12-05T18:09:36.984Z,0
2022-12-05T18:10:36.946Z,0
2022-12-05T18:11:38.024Z,0
2022-12-05T18:12:36.818Z,0
2022-12-05T18:13:36.778Z,0
2022-12-05T18:14:37.094Z,0
2022-12-05T18:15:44.560Z,0
2022-12-05T18:16:37.383Z,0
2022-12-05T18:17:37.004Z,0
2022-12-05T18:18:36.949Z,0
2022-12-05T18:19:37.067Z,0
2022-12-05T18:20:36.978Z,0
2022-12-05T18:21:39.800Z,0
2022-12-05T18:22:37.015Z,0
2022-12-05T18:23:36.973Z,0
2022-12-05T18:24:37.023Z,0
2022-12-05T18:25:36.998Z,0
2022-12-05T18:26:36.961Z,0
2022-12-05T18:27:36.993Z,0
2022-12-05T18:28:37.013Z,0
2022-12-05T18:29:37.030Z,0
2022-12-05T18:30:36.973Z,0
2022-12-05T18:31:37.522Z,0
2022-12-05T18:32:36.969Z,0
2022-12-05T18:33:37.004Z,0
2022-12-05T18:34:37.035Z,0
2022-12-05T18:35:36.988Z,0
2022-12-05T18:36:36.993Z,0
2022-12-05T18:37:40.194Z,0
2022-12-05T18:38:36.978Z,0
2022-12-05T18:39:36.994Z,0
2022-12-05T18:40:37.039Z,0
2022-12-05T18:41:37.019Z,0
2022-12-05T18:42:37.040Z,0
2022-12-05T18:43:37.011Z,0
2022-12-05T18:44:37.006Z,0
2022-12-05T18:45:37.268Z,0
2022-12-05T18:46:37.300Z,0
2022-12-05T18:47:37.105Z,0
2022-12-05T18:48:57.785Z,0
2022-12-05T18:49:37.127Z,0
2022-12-05T18:50:36.980Z,0
2022-12-05T18:51:36.978Z,0
2022-12-05T18:52:37.020Z,0
2022-12-05T18:53:36.986Z,0
2022-12-05T18:54:37.053Z,0
2022-12-05T18:56:29.905Z,0
2022-12-05T18:56:39.668Z,0
2022-12-05T18:57:39.641Z,0
2022-12-05T18:58:39.665Z,0
2022-12-05T18:59:42.562Z,0
2022-12-05T19:00:39.994Z,0
2022-12-05T19:01:40.147Z,0
2022-12-05T19:02:40.078Z,0
2022-12-05T19:03:39.669Z,0
2022-12-05T19:04:39.727Z,0
2022-12-05T19:05:42.538Z,0
2022-12-05T19:06:39.861Z,0
2022-12-05T19:07:40.185Z,0
2022-12-05T19:08:39.688Z,0
2022-12-05T19:09:39.937Z,0
2022-12-05T19:10:42.721Z,0
2022-12-05T19:11:42.854Z,0
2022-12-05T19:12:39.661Z,0
2022-12-05T19:13:39.721Z,0
2022-12-05T19:14:39.714Z,0
2022-12-05T19:15:39.740Z,0
2022-12-05T19:16:43.186Z,0
2022-12-05T19:17:39.694Z,0
2022-12-05T19:18:39.692Z,0
2022-12-05T19:19:39.717Z,0
2022-12-05T19:20:39.705Z,0
2022-12-05T19:21:42.856Z,0
2022-12-05T19:22:39.698Z,0
2022-12-05T19:23:39.762Z,0
2022-12-05T19:24:39.743Z,0
2022-12-05T19:25:39.719Z,0
2022-12-05T19:26:39.700Z,0
2022-12-05T19:27:39.699Z,0
2022-12-05T19:28:39.705Z,0
2022-12-05T19:29:39.758Z,0
2022-12-05T19:30:39.715Z,0
2022-12-05T19:31:40.029Z,0
2022-12-05T19:32:46.575Z,0
2022-12-05T19:33:39.701Z,0
2022-12-05T19:34:39.766Z,0
2022-12-05T19:35:39.714Z,0
2022-12-05T19:36:39.778Z,0
2022-12-05T19:37:39.690Z,0
2022-12-05T19:38:39.694Z,0
2022-12-05T19:39:42.815Z,0
2022-12-05T19:40:39.705Z,0
2022-12-05T19:41:39.744Z,0
2022-12-05T19:42:39.727Z,0
2022-12-05T19:43:42.553Z,0
2022-12-05T19:44:39.732Z,0
2022-12-05T19:45:39.949Z,0
2022-12-05T19:46:39.750Z,0
2022-12-05T19:47:39.757Z,0
2022-12-05T19:48:39.800Z,0
2022-12-05T19:49:39.741Z,0
2022-12-05T19:50:39.747Z,0
2022-12-05T19:51:39.739Z,0
2022-12-05T19:52:40.776Z,0
2022-12-05T19:53:39.769Z,0
2022-12-05T19:54:43.567Z,0
2022-12-05T19:55:39.770Z,0
2022-12-05T19:56:39.739Z,0
2022-12-05T19:57:39.627Z,0
2022-12-05T19:58:39.781Z,0
2022-12-05T19:59:39.767Z,0
2022-12-05T20:00:39.730Z,0
2022-12-05T20:01:40.227Z,0
2022-12-05T20:02:50.431Z,0
2022-12-05T20:03:39.786Z,0
2022-12-05T20:04:39.787Z,0